createdAt,value
2023-04-02T00:00:17.923Z,101330.38
2023-04-02T00:02:57.750Z,101348.03
2023-04-02T00:05:34.811Z,101343.81
2023-04-02T00:08:10.406Z,101296.38
2023-04-02T00:10:46.971Z,101343.50
2023-04-02T00:13:13.950Z,101345.78
2023-04-02T00:15:46.449Z,101215.56
2023-04-02T00:18:14.984Z,101355.25
2023-04-02T00:20:43.054Z,101352.47
2023-04-02T00:23:13.676Z,101266.31
2023-04-02T00:25:43.456Z,101324.13
2023-04-02T00:28:13.863Z,101359.22
2023-04-02T00:31:01.405Z,101327.19
2023-04-02T00:33:29.319Z,101306.44
2023-04-02T00:35:56.228Z,101353.00
2023-04-02T00:38:25.939Z,101358.34
2023-04-02T00:40:53.341Z,101256.44
2023-04-02T00:43:21.162Z,101370.38
2023-04-02T00:45:51.217Z,101319.34
2023-04-02T00:48:28.594Z,101336.75
2023-04-02T00:50:55.691Z,101333.25
2023-04-02T00:53:25.958Z,101345.41
2023-04-02T00:55:52.829Z,101275.22
2023-04-02T00:58:26.126Z,101364.50
2023-04-02T01:00:53.152Z,101365.34
2023-04-02T01:03:19.913Z,101365.34
2023-04-02T01:06:16.571Z,101355.25
2023-04-02T01:08:49.243Z,101352.72
2023-04-02T01:11:44.106Z,101352.44
2023-04-02T01:14:33.154Z,101347.97
2023-04-02T01:17:30.685Z,101347.13
2023-04-02T01:20:26.795Z,101348.50
2023-04-02T01:23:17.287Z,101337.56
2023-04-02T01:25:53.956Z,101317.88
2023-04-02T01:28:46.553Z,101340.06
2023-04-02T01:31:13.550Z,101254.16
2023-04-02T01:33:40.424Z,101350.72
2023-04-02T01:36:09.934Z,101342.84
2023-04-02T01:38:44.249Z,101313.09
2023-04-02T01:41:38.806Z,101303.53
2023-04-02T01:44:09.897Z,101308.88
2023-04-02T01:46:40.473Z,101311.38
2023-04-02T01:49:12.823Z,101340.84
2023-04-02T01:51:44.280Z,101336.09
2023-04-02T01:54:11.390Z,101340.31
2023-04-02T01:56:38.161Z,101311.94
2023-04-02T01:59:06.198Z,101320.91
2023-04-02T02:01:42.951Z,101336.09
2023-04-02T02:04:14.003Z,101336.38
2023-04-02T02:06:40.847Z,101309.13
2023-04-02T02:09:07.667Z,101309.13
2023-04-02T02:11:36.579Z,101334.38
2023-04-02T02:14:12.656Z,101303.78
2023-04-02T02:16:41.932Z,101270.97
2023-04-02T02:19:33.690Z,101265.00
2023-04-02T02:22:13.338Z,101301.56
2023-04-02T02:24:40.151Z,101313.06
2023-04-02T02:27:25.626Z,101318.06
2023-04-02T02:30:16.541Z,101318.06
2023-04-02T02:33:35.941Z,101293.66
2023-04-02T02:36:05.700Z,101284.09
2023-04-02T02:38:57.754Z,101308.50
2023-04-02T02:41:27.872Z,101308.25
2023-04-02T02:44:02.635Z,101304.88
2023-04-02T02:46:29.890Z,101305.41
2023-04-02T02:48:57.113Z,101279.88
2023-04-02T02:51:40.225Z,101264.16
2023-04-02T02:54:07.887Z,101308.44
2023-04-02T02:56:34.983Z,101284.34
2023-04-02T02:59:02.053Z,101284.88
2023-04-02T03:01:29.855Z,101309.56
2023-04-02T03:03:56.749Z,101306.72
2023-04-02T03:06:23.688Z,101310.06
2023-04-02T03:08:58.607Z,101301.91
2023-04-02T03:11:57.930Z,101308.34
2023-04-02T03:15:38.612Z,101320.63
2023-04-02T03:18:18.401Z,101283.56
2023-04-02T03:20:55.509Z,101289.72
2023-04-02T03:23:29.646Z,101270.94
2023-04-02T03:26:07.081Z,101307.22
2023-04-02T03:28:37.721Z,101287.72
2023-04-02T03:31:16.875Z,101317.81
2023-04-02T03:33:51.563Z,101321.44
2023-04-02T03:36:33.877Z,101318.94
2023-04-02T03:39:09.002Z,101310.47
2023-04-02T03:42:01.080Z,101282.91
2023-04-02T03:44:28.948Z,101316.84
2023-04-02T03:47:01.614Z,101307.59
2023-04-02T03:49:44.085Z,101308.66
2023-04-02T03:52:12.010Z,101314.19
2023-04-02T03:54:39.201Z,101311.97
2023-04-02T03:57:08.587Z,101210.25
2023-04-02T03:59:44.875Z,101243.38
2023-04-02T04:02:26.987Z,101304.59
2023-04-02T04:04:54.173Z,101307.59
2023-04-02T04:07:33.103Z,101277.50
2023-04-02T04:09:59.978Z,101318.47
2023-04-02T04:12:35.087Z,101317.31
2023-04-02T04:15:08.096Z,101317.00
2023-04-02T04:18:02.604Z,101267.81
2023-04-02T04:20:40.621Z,101310.22
2023-04-02T04:23:26.012Z,101307.09
2023-04-02T04:26:19.931Z,101307.94
2023-04-02T04:29:00.020Z,101306.50
2023-04-02T04:31:50.178Z,101303.19
2023-04-02T04:34:25.724Z,101255.91
2023-04-02T04:37:01.742Z,101312.38
2023-04-02T04:39:41.688Z,101315.63
2023-04-02T04:42:08.354Z,101318.94
2023-04-02T04:44:42.680Z,101328.19
2023-04-02T04:47:18.231Z,101298.97
2023-04-02T04:49:56.200Z,101285.50
2023-04-02T04:52:29.189Z,101298.97
2023-04-02T04:54:56.045Z,101326.47
2023-04-02T04:57:36.531Z,101325.88
2023-04-02T05:00:09.615Z,101338.44
2023-04-02T05:02:41.568Z,101336.72
2023-04-02T05:05:18.730Z,101340.31
2023-04-02T05:07:49.269Z,101343.34
2023-04-02T05:10:25.152Z,101316.91
2023-04-02T05:12:59.776Z,101337.97
2023-04-02T05:15:42.417Z,101336.28
2023-04-02T05:18:18.208Z,101340.72
2023-04-02T05:21:11.413Z,101332.28
2023-04-02T05:24:08.902Z,101344.31
2023-04-02T05:26:43.518Z,101335.03
2023-04-02T05:29:24.111Z,101337.53
2023-04-02T05:32:03.770Z,101350.09
2023-04-02T05:34:34.481Z,101350.63
2023-04-02T05:37:02.213Z,101346.59
2023-04-02T05:39:29.591Z,101303.16
2023-04-02T05:42:18.189Z,101360.34
2023-04-02T05:45:07.808Z,101367.88
2023-04-02T05:47:41.094Z,101357.09
2023-04-02T05:50:08.087Z,101375.34
2023-04-02T05:52:37.294Z,101352.53
2023-04-02T05:55:13.223Z,101381.44
2023-04-02T05:57:52.881Z,101341.72
2023-04-02T06:00:37.831Z,101380.59
2023-04-02T06:03:07.747Z,101363.03
2023-04-02T06:05:37.369Z,101340.41
2023-04-02T06:08:32.967Z,101383.34
2023-04-02T06:11:33.225Z,101385.22
2023-04-02T06:14:00.018Z,101365.97
2023-04-02T06:16:28.406Z,101390.75
2023-04-02T06:18:55.142Z,101346.31
2023-04-02T06:21:22.586Z,101365.72
2023-04-02T06:23:55.249Z,101398.00
2023-04-02T06:26:35.429Z,101389.69
2023-04-02T06:29:09.590Z,101348.31
2023-04-02T06:31:42.697Z,101345.28
2023-04-02T06:34:19.814Z,101350.91
2023-04-02T06:36:46.739Z,101388.59
2023-04-02T06:39:18.555Z,101383.53
2023-04-02T06:41:45.816Z,101373.84
2023-04-02T06:44:16.199Z,101391.81
2023-04-02T06:46:50.561Z,101398.44
2023-04-02T06:49:25.602Z,101366.50
2023-04-02T06:51:53.827Z,101397.75
2023-04-02T06:54:21.262Z,101288.06
2023-04-02T06:56:52.842Z,101386.22
2023-04-02T06:59:19.678Z,101398.19
2023-04-02T07:01:49.589Z,101399.19
2023-04-02T07:04:16.583Z,101409.63
2023-04-02T07:06:43.521Z,101411.66
2023-04-02T07:09:10.581Z,101414.50
2023-04-02T07:11:37.606Z,101421.84
2023-04-02T07:14:04.508Z,101424.19
2023-04-02T07:16:32.802Z,101418.16
2023-04-02T07:18:59.761Z,101431.13
2023-04-02T07:21:27.067Z,101419.56
2023-04-02T07:23:54.164Z,101430.44
2023-04-02T07:26:23.606Z,101431.75
2023-04-02T07:28:50.522Z,101376.84
2023-04-02T07:31:19.136Z,101420.06
2023-04-02T07:33:46.409Z,101344.59
2023-04-02T07:36:14.795Z,101427.19
2023-04-02T07:38:41.943Z,101419.13
2023-04-02T07:41:08.998Z,101379.94
2023-04-02T07:43:36.158Z,101421.56
2023-04-02T07:46:04.315Z,101428.25
2023-04-02T07:48:31.541Z,101418.13
2023-04-02T07:50:58.916Z,101445.56
2023-04-02T07:53:33.983Z,101439.53
2023-04-02T07:56:02.322Z,101420.56
2023-04-02T07:58:29.840Z,101444.53
2023-04-02T08:00:57.100Z,101428.69
2023-04-02T08:03:23.989Z,101444.81
2023-04-02T08:05:52.605Z,101442.03
2023-04-02T08:08:20.212Z,101406.81
2023-04-02T08:10:47.262Z,101437.31
2023-04-02T08:13:14.476Z,101445.28
2023-04-02T08:15:41.418Z,101445.84
2023-04-02T08:18:08.433Z,101438.53
2023-04-02T08:20:35.205Z,101431.75
2023-04-02T08:23:01.993Z,101411.28
2023-04-02T08:25:28.929Z,101442.16
2023-04-02T08:27:55.726Z,101439.41
2023-04-02T08:30:22.674Z,101426.84
2023-04-02T08:32:49.664Z,101408.31
2023-04-02T08:35:16.927Z,101444.56
2023-04-02T08:37:43.977Z,101449.66
2023-04-02T08:40:44.176Z,101442.59
2023-04-02T08:43:34.826Z,101431.97
2023-04-02T08:46:14.107Z,101451.66
2023-04-02T08:48:42.711Z,101403.59
2023-04-02T08:51:22.739Z,101427.53
2023-04-02T08:53:49.655Z,101421.06
2023-04-02T08:56:24.170Z,101396.06
2023-04-02T08:58:54.247Z,101407.47
2023-04-02T09:01:51.982Z,101437.94
2023-04-02T09:04:21.466Z,101435.31
2023-04-02T09:06:48.533Z,101442.50
2023-04-02T09:09:15.781Z,101394.69
2023-04-02T09:12:05.543Z,101440.84
2023-04-02T09:14:54.100Z,101454.34
2023-04-02T09:17:22.600Z,101450.94
2023-04-02T09:19:57.744Z,101424.31
2023-04-02T09:22:31.887Z,101419.00
2023-04-02T09:25:02.132Z,101387.50
2023-04-02T09:27:30.980Z,101459.00
2023-04-02T09:30:13.981Z,101465.56
2023-04-02T09:32:51.853Z,101455.84
2023-04-02T09:35:27.070Z,101468.25
2023-04-02T09:38:16.278Z,101477.97
2023-04-02T09:40:47.074Z,101472.13
2023-04-02T09:43:18.865Z,101470.22
2023-04-02T09:45:55.610Z,101470.31
2023-04-02T09:48:26.534Z,101476.50
2023-04-02T09:51:12.961Z,101473.81
2023-04-02T09:53:42.586Z,101472.41
2023-04-02T09:56:23.629Z,101464.31
2023-04-02T09:59:06.437Z,101470.22
2023-04-02T10:01:33.628Z,101482.72
2023-04-02T10:04:00.718Z,101480.72
2023-04-02T10:06:28.394Z,101431.69
2023-04-02T10:08:55.647Z,101483.31
2023-04-02T10:11:36.412Z,101483.31
2023-04-02T10:14:18.369Z,101465.28
2023-04-02T10:16:50.770Z,101471.97
2023-04-02T10:19:34.101Z,101413.66
2023-04-02T10:22:03.503Z,101468.38
2023-04-02T10:24:30.342Z,101470.78
2023-04-02T10:27:34.629Z,101464.41
2023-04-02T10:30:07.563Z,101469.22
2023-04-02T10:32:56.834Z,101457.97
2023-04-02T10:36:05.202Z,101457.78
2023-04-02T10:39:12.264Z,101448.72
2023-04-02T10:41:47.993Z,101458.59
2023-04-02T10:44:33.614Z,101464.88
2023-04-02T10:47:06.684Z,101443.31
2023-04-02T10:49:42.490Z,101443.09
2023-04-02T10:52:29.078Z,101447.03
2023-04-02T10:55:01.355Z,101450.94
2023-04-02T10:57:37.618Z,101420.88
2023-04-02T11:00:16.856Z,101456.56
2023-04-02T11:03:11.443Z,101456.75
2023-04-02T11:05:51.859Z,101442.50
2023-04-02T11:08:27.715Z,101450.53
2023-04-02T11:11:04.834Z,101458.72
2023-04-02T11:13:52.342Z,101438.09
2023-04-02T11:16:19.211Z,101455.84
2023-04-02T11:19:08.273Z,101451.41
2023-04-02T11:21:58.044Z,101437.47
2023-04-02T11:24:37.383Z,101430.69
2023-04-02T11:27:04.223Z,101435.78
2023-04-02T11:29:31.189Z,101420.38
2023-04-02T11:32:25.326Z,101420.16
2023-04-02T11:35:05.869Z,101428.59
2023-04-02T11:37:45.765Z,101427.69
2023-04-02T11:40:12.995Z,101427.91
2023-04-02T11:42:49.857Z,101411.66
2023-04-02T11:45:22.684Z,101400.38
2023-04-02T11:48:02.181Z,101410.78
2023-04-02T11:50:40.468Z,101399.72
2023-04-02T11:53:18.862Z,101403.84
2023-04-02T11:55:46.635Z,101369.31
2023-04-02T11:58:38.219Z,101388.59
2023-04-02T12:01:30.149Z,101379.38
2023-04-02T12:04:50.920Z,101374.66
2023-04-02T12:07:36.524Z,101370.47
2023-04-02T12:10:15.996Z,101336.06
2023-04-02T12:12:43.281Z,101377.56
2023-04-02T12:15:44.090Z,101364.88
2023-04-02T12:18:13.736Z,101364.19
2023-04-02T12:20:40.655Z,101362.19
2023-04-02T12:23:16.427Z,101350.06
2023-04-02T12:25:43.365Z,101350.66
2023-04-02T12:28:10.058Z,101349.03
2023-04-02T12:30:37.943Z,101263.75
2023-04-02T12:33:37.689Z,101347.59
2023-04-02T12:36:21.674Z,101339.97
2023-04-02T12:38:55.238Z,101354.47
2023-04-02T12:41:27.398Z,101315.56
2023-04-02T12:44:01.588Z,101296.81
2023-04-02T12:46:30.001Z,101311.41
2023-04-02T12:49:00.268Z,101340.97
2023-04-02T12:51:28.416Z,101338.22
2023-04-02T12:53:55.512Z,101343.91
2023-04-02T12:56:22.636Z,101320.59
2023-04-02T12:58:56.869Z,101328.03
2023-04-02T13:01:24.940Z,101300.78
2023-04-02T13:04:07.340Z,101317.56
2023-04-02T13:06:35.198Z,101316.63
2023-04-02T13:09:03.841Z,101293.84
2023-04-02T13:11:35.876Z,101303.50
2023-04-02T13:14:03.570Z,101287.72
2023-04-02T13:16:38.489Z,101251.75
2023-04-02T13:19:20.992Z,101301.50
2023-04-02T13:21:47.964Z,101291.28
2023-04-02T13:24:19.344Z,101279.69
2023-04-02T13:26:48.161Z,101254.81
2023-04-02T13:29:22.831Z,101290.25
2023-04-02T13:31:50.015Z,101303.22
2023-04-02T13:34:18.025Z,101295.63
2023-04-02T13:36:45.353Z,101271.56
2023-04-02T13:39:12.186Z,101260.34
2023-04-02T13:41:47.315Z,101271.22
2023-04-02T13:44:33.433Z,101271.00
2023-04-02T13:47:01.383Z,101262.78
2023-04-02T13:49:28.346Z,101267.22
2023-04-02T13:51:58.936Z,101267.19
2023-04-02T13:54:48.978Z,101254.44
2023-04-02T13:57:15.958Z,101258.00
2023-04-02T13:59:42.762Z,101260.47
2023-04-02T14:02:17.991Z,101243.50
2023-04-02T14:04:50.492Z,101202.34
2023-04-02T14:07:27.719Z,101244.75
2023-04-02T14:10:27.943Z,101237.66
2023-04-02T14:13:00.907Z,101242.53
2023-04-02T14:15:46.036Z,101232.94
2023-04-02T14:18:12.746Z,101239.47
2023-04-02T14:20:54.328Z,101233.97
2023-04-02T14:23:33.390Z,101222.97
2023-04-02T14:26:15.493Z,101209.66
2023-04-02T14:28:57.747Z,101212.38
2023-04-02T14:31:31.719Z,101216.78
2023-04-02T14:34:17.524Z,101201.59
2023-04-02T14:37:15.626Z,101207.84
2023-04-02T14:40:00.942Z,101210.69
2023-04-02T14:42:39.844Z,101209.34
2023-04-02T14:45:31.004Z,101202.88
2023-04-02T14:48:22.614Z,101181.66
2023-04-02T14:50:49.532Z,101213.91
2023-04-02T14:53:20.766Z,101207.06
2023-04-02T14:55:48.561Z,101213.41
2023-04-02T14:58:31.735Z,101177.84
2023-04-02T15:01:14.192Z,101184.00
2023-04-02T15:03:54.553Z,101186.34
2023-04-02T15:06:36.928Z,101183.84
2023-04-02T15:09:42.667Z,101185.19
2023-04-02T15:12:12.490Z,101172.50
2023-04-02T15:14:42.210Z,101177.16
2023-04-02T15:17:12.199Z,101168.31
2023-04-02T15:19:39.068Z,101163.97
2023-04-02T15:22:21.235Z,101166.31
2023-04-02T15:24:57.941Z,101161.78
2023-04-02T15:27:46.093Z,101171.94
2023-04-02T15:30:20.719Z,101176.94
2023-04-02T15:32:47.608Z,101186.47
2023-04-02T15:35:17.317Z,101181.28
2023-04-02T15:38:16.697Z,101172.09
2023-04-02T15:41:05.244Z,101168.06
2023-04-02T15:43:39.264Z,101151.53
2023-04-02T15:46:09.385Z,101164.53
2023-04-02T15:48:57.909Z,101162.72
2023-04-02T15:51:39.066Z,101121.47
2023-04-02T15:54:16.682Z,101149.31
2023-04-02T15:56:52.536Z,101152.50
2023-04-02T15:59:34.453Z,101148.84
2023-04-02T16:02:22.442Z,101157.69
2023-04-02T16:05:27.579Z,101152.19
2023-04-02T16:08:17.060Z,101124.13
2023-04-02T16:10:45.626Z,101151.31
2023-04-02T16:13:28.784Z,101142.34
2023-04-02T16:16:06.724Z,101143.31
2023-04-02T16:18:37.905Z,101105.06
2023-04-02T16:21:04.719Z,101141.16
2023-04-02T16:23:36.539Z,101113.94
2023-04-02T16:26:06.191Z,101139.00
2023-04-02T16:28:36.820Z,101118.31
2023-04-02T16:31:41.570Z,101118.13
2023-04-02T16:34:11.542Z,101112.47
2023-04-02T16:36:42.350Z,101113.78
2023-04-02T16:39:18.221Z,101113.44
2023-04-02T16:41:50.853Z,101118.09
2023-04-02T16:44:42.112Z,101009.34
2023-04-02T16:47:28.877Z,101123.00
2023-04-02T16:50:22.061Z,101120.31
2023-04-02T16:53:24.573Z,101113.63
2023-04-02T16:56:10.129Z,101103.97
2023-04-02T16:58:52.330Z,101118.47
2023-04-02T17:01:30.314Z,101108.63
2023-04-02T17:04:08.356Z,101105.28
2023-04-02T17:06:42.906Z,101111.59
2023-04-02T17:09:18.461Z,101069.19
2023-04-02T17:11:50.583Z,101083.72
2023-04-02T17:14:24.852Z,101091.75
2023-04-02T17:16:56.718Z,101086.91
2023-04-02T17:19:25.252Z,101090.38
2023-04-02T17:21:53.348Z,101097.22
2023-04-02T17:24:21.946Z,101096.22
2023-04-02T17:26:54.555Z,101094.84
2023-04-02T17:29:30.028Z,101050.59
2023-04-02T17:32:00.772Z,101051.06
2023-04-02T17:34:28.231Z,101104.28
2023-04-02T17:37:46.516Z,101096.75
2023-04-02T17:40:22.775Z,101107.72
2023-04-02T17:43:08.187Z,101065.50
2023-04-02T17:45:56.500Z,101100.63
2023-04-02T17:48:29.740Z,101102.78
2023-04-02T17:51:05.600Z,101113.34
2023-04-02T17:53:40.509Z,101112.31
2023-04-02T17:56:19.404Z,101089.03
2023-04-02T17:58:58.759Z,101109.09
2023-04-02T18:01:34.593Z,101110.56
2023-04-02T18:04:10.918Z,101109.56
2023-04-02T18:06:45.490Z,101110.63
2023-04-02T18:09:12.440Z,101121.75
2023-04-02T18:11:59.758Z,101125.34
2023-04-02T18:14:55.939Z,101123.06
2023-04-02T18:17:46.202Z,101123.28
2023-04-02T18:20:19.620Z,101131.38
2023-04-02T18:22:58.554Z,101133.16
2023-04-02T18:25:35.916Z,101083.78
2023-04-02T18:28:17.927Z,101136.09
2023-04-02T18:30:56.406Z,101125.00
2023-04-02T18:34:05.243Z,101129.19
2023-04-02T18:36:44.680Z,101141.50
2023-04-02T18:39:35.878Z,101134.63
2023-04-02T18:42:37.949Z,101058.56
2023-04-02T18:45:04.693Z,101143.91
2023-04-02T18:47:56.204Z,101138.16
2023-04-02T18:50:36.604Z,101107.28
2023-04-02T18:53:19.919Z,101148.28
2023-04-02T18:55:49.746Z,101136.56
2023-04-02T18:58:21.503Z,101118.63
2023-04-02T19:00:48.618Z,101149.16
2023-04-02T19:03:33.154Z,101144.78
2023-04-02T19:06:07.846Z,101108.81
2023-04-02T19:08:40.579Z,101103.25
2023-04-02T19:11:28.944Z,101136.06
2023-04-02T19:13:58.900Z,101134.72
2023-04-02T19:16:28.728Z,101128.34
2023-04-02T19:18:59.345Z,101140.84
2023-04-02T19:21:47.503Z,101130.28
2023-04-02T19:24:26.412Z,101114.88
2023-04-02T19:27:05.166Z,101122.88
2023-04-02T19:29:42.255Z,101124.03
2023-04-02T19:32:44.864Z,101127.78
2023-04-02T19:35:29.087Z,101086.47
2023-04-02T19:38:17.322Z,101123.13
2023-04-02T19:40:51.674Z,101118.69
2023-04-02T19:43:18.758Z,101098.44
2023-04-02T19:45:49.696Z,101124.94
2023-04-02T19:48:21.975Z,101120.75
2023-04-02T19:50:48.838Z,101090.13
2023-04-02T19:53:17.075Z,101114.19
2023-04-02T19:55:44.088Z,101132.69
2023-04-02T19:58:31.721Z,101132.16
2023-04-02T20:00:58.864Z,101108.69
2023-04-02T20:03:25.864Z,101129.41
2023-04-02T20:05:52.824Z,101137.31
2023-04-02T20:08:19.752Z,101132.28
2023-04-02T20:10:46.576Z,101113.63
2023-04-02T20:13:13.747Z,101141.34
2023-04-02T20:15:41.233Z,101127.16
2023-04-02T20:18:08.082Z,101152.59
2023-04-02T20:20:35.039Z,101147.53
2023-04-02T20:23:02.095Z,101108.31
2023-04-02T20:25:28.890Z,101130.16
2023-04-02T20:27:55.645Z,101108.00
2023-04-02T20:30:22.488Z,101145.25
2023-04-02T20:32:49.403Z,101147.19
2023-04-02T20:35:16.355Z,101145.03
2023-04-02T20:37:43.313Z,101145.06
2023-04-02T20:40:13.147Z,101143.09
2023-04-02T20:42:40.036Z,101143.16
2023-04-02T20:45:08.697Z,101142.00
2023-04-02T20:47:35.765Z,101062.97
2023-04-02T20:50:02.553Z,101151.91
2023-04-02T20:52:30.514Z,101102.41
2023-04-02T20:54:57.608Z,101092.59
2023-04-02T20:57:26.333Z,101114.69
2023-04-02T20:59:54.679Z,101136.78
2023-04-02T21:02:21.613Z,101111.94
2023-04-02T21:04:48.531Z,101149.69
2023-04-02T21:07:15.748Z,101147.72
2023-04-02T21:09:42.526Z,101117.56
2023-04-02T21:12:12.287Z,101115.88
2023-04-02T21:14:41.930Z,101142.13
2023-04-02T21:17:09.006Z,101142.13
2023-04-02T21:19:35.989Z,101101.63
2023-04-02T21:22:03.555Z,101117.56
2023-04-02T21:24:30.418Z,101145.00
2023-04-02T21:26:57.199Z,101142.44
2023-04-02T21:29:24.241Z,101130.38
2023-04-02T21:31:51.095Z,101143.25
2023-04-02T21:34:17.885Z,101143.25
2023-04-02T21:36:46.052Z,101125.94
2023-04-02T21:39:23.245Z,101121.16
2023-04-02T21:41:51.377Z,101127.31
2023-04-02T21:44:19.908Z,101105.84
2023-04-02T21:46:46.975Z,101135.78
2023-04-02T21:49:15.832Z,101084.56
2023-04-02T21:51:42.893Z,101136.59
2023-04-02T21:54:09.829Z,101091.81
2023-04-02T21:56:38.110Z,101092.38
2023-04-02T21:59:05.496Z,101114.16
2023-04-02T22:01:34.463Z,101116.44
2023-04-02T22:04:03.115Z,101113.06
2023-04-02T22:06:31.711Z,101124.31
2023-04-02T22:09:04.308Z,101122.09
2023-04-02T22:11:32.973Z,101119.34
2023-04-02T22:13:59.915Z,101105.72
2023-04-02T22:16:28.092Z,101122.47
2023-04-02T22:18:57.333Z,101106.19
2023-04-02T22:21:25.774Z,101110.09
2023-04-02T22:23:52.894Z,101113.25
2023-04-02T22:26:20.846Z,101117.91
2023-04-02T22:28:47.687Z,101099.38
2023-04-02T22:31:19.395Z,101116.44
2023-04-02T22:33:46.515Z,101099.13
2023-04-02T22:36:13.683Z,101062.63
2023-04-02T22:38:40.987Z,101092.75
2023-04-02T22:41:12.999Z,101060.03
2023-04-02T22:43:40.801Z,101090.44
2023-04-02T22:46:08.736Z,101052.47
2023-04-02T22:48:36.267Z,101053.31
2023-04-02T22:51:03.375Z,101083.59
2023-04-02T22:53:30.114Z,101048.63
2023-04-02T22:56:02.375Z,101076.81
2023-04-02T22:58:30.044Z,101051.03
2023-04-02T23:00:56.844Z,101039.44
2023-04-02T23:03:23.612Z,101071.25
2023-04-02T23:06:10.695Z,101031.41
2023-04-02T23:08:37.717Z,101017.63
2023-04-02T23:11:06.836Z,101049.41
2023-04-02T23:13:33.857Z,101049.97
2023-04-02T23:16:02.079Z,101042.91
2023-04-02T23:18:29.835Z,101036.13
2023-04-02T23:20:56.825Z,101003.47
2023-04-02T23:23:24.396Z,100912.38
2023-04-02T23:25:51.179Z,101026.56
2023-04-02T23:28:18.126Z,100989.47
2023-04-02T23:30:45.011Z,101022.97
2023-04-02T23:33:11.921Z,100912.97
2023-04-02T23:35:38.776Z,101025.94
2023-04-02T23:38:07.858Z,101010.34
2023-04-02T23:40:35.106Z,101018.19
2023-04-02T23:43:02.156Z,101021.03
2023-04-02T23:45:28.929Z,101022.19
2023-04-02T23:47:56.012Z,100969.63
2023-04-02T23:50:22.772Z,101021.13
2023-04-02T23:52:49.515Z,100983.09
2023-04-02T23:55:16.412Z,100974.78
2023-04-02T23:57:43.141Z,101005.81
